createdAt,value
2019-04-29T00:00:10.679Z,10.58
2019-04-29T00:02:39.863Z,10.05
2019-04-29T00:05:09.099Z,9.23
2019-04-29T00:07:38.338Z,9.35
2019-04-29T00:10:09.911Z,9.68
2019-04-29T00:12:39.266Z,10.78
2019-04-29T00:15:22.188Z,10.18
2019-04-29T00:17:53.035Z,10.58
2019-04-29T00:20:29.324Z,10.48
2019-04-29T00:22:58.502Z,9.93
2019-04-29T00:25:27.695Z,10.20
2019-04-29T00:27:56.925Z,10.70
2019-04-29T00:30:26.101Z,11.33
2019-04-29T00:32:55.407Z,10.50
2019-04-29T00:35:24.613Z,9.45
2019-04-29T00:38:10.711Z,10.18
2019-04-29T00:40:56.391Z,10.18
2019-04-29T00:43:29.783Z,9.58
2019-04-29T00:45:59.052Z,7.30
2019-04-29T00:48:28.232Z,7.72
2019-04-29T00:50:57.411Z,7.03
2019-04-29T00:53:27.382Z,7.95
2019-04-29T00:55:56.585Z,7.53
2019-04-29T00:58:25.886Z,7.78
2019-04-29T01:00:55.167Z,7.50
2019-04-29T01:03:24.379Z,7.53
2019-04-29T01:05:53.609Z,8.25
2019-04-29T01:08:22.777Z,8.23
2019-04-29T01:10:52.154Z,7.87
2019-04-29T01:13:21.360Z,7.20
2019-04-29T01:15:50.544Z,6.87
2019-04-29T01:18:19.854Z,7.58
2019-04-29T01:20:49.063Z,10.63
2019-04-29T01:23:18.215Z,8.20
2019-04-29T01:25:49.022Z,8.58
2019-04-29T01:28:28.869Z,8.00
2019-04-29T01:31:06.645Z,7.85
2019-04-29T01:33:35.904Z,7.53
2019-04-29T01:36:18.274Z,8.45
2019-04-29T01:38:49.350Z,7.90
2019-04-29T01:41:31.960Z,8.15
2019-04-29T01:44:05.130Z,7.83
2019-04-29T01:46:34.382Z,8.58
2019-04-29T01:49:03.594Z,8.65
2019-04-29T01:51:32.882Z,8.48
2019-04-29T01:54:02.058Z,8.83
2019-04-29T01:56:31.283Z,8.90
2019-04-29T01:59:00.461Z,7.97
2019-04-29T02:01:29.793Z,9.03
2019-04-29T02:03:59.084Z,9.53
2019-04-29T02:06:28.290Z,10.23
2019-04-29T02:08:57.672Z,10.40
2019-04-29T02:11:26.865Z,9.60
2019-04-29T02:13:56.049Z,9.33
2019-04-29T02:16:25.287Z,9.73
2019-04-29T02:18:54.836Z,9.53
2019-04-29T02:21:24.060Z,10.28
2019-04-29T02:24:12.674Z,9.20
2019-04-29T02:26:41.912Z,10.53
2019-04-29T02:29:11.107Z,10.38
2019-04-29T02:31:44.457Z,11.05
2019-04-29T02:34:13.700Z,11.05
2019-04-29T02:36:42.868Z,10.68
2019-04-29T02:39:30.250Z,11.20
2019-04-29T02:42:09.820Z,11.75
2019-04-29T02:44:39.053Z,10.40
2019-04-29T02:47:08.313Z,10.48
2019-04-29T02:49:37.493Z,10.43
2019-04-29T02:52:06.762Z,11.73
2019-04-29T02:54:35.958Z,12.05
2019-04-29T02:57:09.800Z,12.23
2019-04-29T02:59:40.628Z,13.18
2019-04-29T03:02:13.957Z,12.88
2019-04-29T03:04:50.927Z,12.95
2019-04-29T03:07:20.877Z,14.30
2019-04-29T03:09:50.163Z,13.13
2019-04-29T03:12:19.553Z,14.73
2019-04-29T03:14:48.739Z,14.68
2019-04-29T03:17:18.862Z,15.13
2019-04-29T03:22:35.080Z,14.38
2019-04-29T03:25:04.936Z,13.90
2019-04-29T03:27:34.129Z,15.38
2019-04-29T03:30:03.528Z,14.20
2019-04-29T03:32:32.805Z,14.33
2019-04-29T03:35:02.056Z,14.38
2019-04-29T03:37:31.473Z,14.35
2019-04-29T03:40:00.813Z,14.45
2019-04-29T03:42:31.716Z,13.40
2019-04-29T03:45:00.914Z,14.78
2019-04-29T03:47:30.093Z,15.32
2019-04-29T03:49:59.460Z,15.32
2019-04-29T03:52:28.774Z,14.63
2019-04-29T03:54:57.985Z,15.28
2019-04-29T03:57:28.994Z,15.48
2019-04-29T03:59:58.170Z,15.83
2019-04-29T04:02:33.572Z,15.55
2019-04-29T04:05:19.547Z,14.00
2019-04-29T04:07:58.939Z,10.58
2019-04-29T04:10:28.197Z,9.05
2019-04-29T04:12:57.398Z,7.95
2019-04-29T04:15:26.598Z,7.70
2019-04-29T04:18:06.364Z,7.10
2019-04-29T04:20:35.702Z,7.42
2019-04-29T04:23:05.068Z,8.83
2019-04-29T04:25:34.248Z,7.42
2019-04-29T04:28:03.432Z,7.42
2019-04-29T04:30:32.636Z,7.35
2019-04-29T04:33:01.838Z,7.83
2019-04-29T04:35:31.147Z,7.72
2019-04-29T04:38:00.305Z,7.22
2019-04-29T04:40:48.999Z,6.42
2019-04-29T04:43:18.154Z,6.58
2019-04-29T04:56:37.054Z,7.15
2019-04-29T05:13:34.195Z,6.50
2019-04-29T05:32:30.573Z,7.00
2019-04-29T05:38:03.229Z,7.60
2019-04-29T05:40:40.166Z,6.87
2019-04-29T05:43:14.270Z,7.37
2019-04-29T06:03:05.141Z,16.10
2019-04-29T06:05:34.331Z,15.70
2019-04-29T06:08:03.706Z,17.67
2019-04-29T06:10:37.442Z,16.70
2019-04-29T06:13:07.039Z,15.28
2019-04-29T06:15:36.512Z,15.50
2019-04-29T06:18:06.475Z,18.30
2019-04-29T06:20:35.672Z,17.80
2019-04-29T06:23:05.259Z,22.27
2019-04-29T06:28:03.113Z,19.17
2019-04-29T06:30:32.356Z,17.20
2019-04-29T06:33:02.212Z,19.17
2019-04-29T06:35:31.449Z,18.42
2019-04-29T06:38:00.899Z,20.27
2019-04-29T06:40:35.265Z,19.15
2019-04-29T06:43:01.941Z,18.55
2019-04-29T06:45:31.183Z,21.67
2019-04-29T06:51:03.587Z,20.72
2019-04-29T06:56:15.019Z,18.37
2019-04-29T07:04:14.160Z,19.25
2019-04-29T07:06:56.429Z,19.75
2019-04-29T07:09:14.314Z,17.75
2019-04-29T07:11:43.581Z,18.40
2019-04-29T07:14:12.812Z,17.60
2019-04-29T07:16:42.220Z,17.40
2019-04-29T07:19:11.427Z,18.10
2019-04-29T07:21:41.789Z,18.50
2019-04-29T07:24:11.653Z,17.95
2019-04-29T07:26:40.906Z,19.92
2019-04-29T07:29:10.112Z,20.50
2019-04-29T07:31:39.525Z,19.75
2019-04-29T07:34:09.251Z,20.37
2019-04-29T07:36:38.535Z,18.75
2019-04-29T07:39:12.751Z,19.65
2019-04-29T07:41:44.414Z,19.73
2019-04-29T07:44:18.272Z,18.02
2019-04-29T07:46:56.675Z,17.95
2019-04-29T07:55:20.249Z,19.20
2019-04-29T07:57:52.125Z,20.23
2019-04-29T08:00:33.028Z,20.23
2019-04-29T08:03:03.846Z,19.50
2019-04-29T08:05:35.219Z,17.95
2019-04-29T08:08:04.834Z,17.48
2019-04-29T08:10:34.256Z,20.40
2019-04-29T08:13:03.770Z,20.85
2019-04-29T08:15:36.885Z,21.12
2019-04-29T08:18:06.834Z,18.15
2019-04-29T08:20:35.442Z,17.75
2019-04-29T08:23:06.357Z,17.50
2019-04-29T08:25:35.612Z,17.57
2019-04-29T08:29:00.366Z,16.12
2019-04-29T08:42:59.976Z,15.20
2019-04-29T08:48:26.555Z,17.25
2019-04-29T08:50:55.780Z,17.85
2019-04-29T08:56:10.276Z,17.40
2019-04-29T08:58:39.486Z,18.77
2019-04-29T09:01:08.859Z,13.55
2019-04-29T09:03:40.641Z,14.23
2019-04-29T09:06:09.527Z,14.53
2019-04-29T09:08:53.477Z,13.55
2019-04-29T09:11:12.896Z,13.98
2019-04-29T09:13:41.632Z,13.88
2019-04-29T09:16:10.890Z,14.00
2019-04-29T09:18:40.318Z,13.58
2019-04-29T09:29:47.906Z,14.33
2019-04-29T09:32:17.318Z,15.50
2019-04-29T09:34:55.561Z,14.75
2019-04-29T09:37:22.901Z,15.85
2019-04-29T09:39:52.954Z,15.15
2019-04-29T09:42:31.012Z,15.55
2019-04-29T09:45:19.599Z,14.78
2019-04-29T09:47:48.809Z,15.40
2019-04-29T09:50:18.844Z,13.93
2019-04-29T09:52:48.133Z,13.72
2019-04-29T09:55:18.947Z,14.10
2019-04-29T09:57:48.172Z,15.30
2019-04-29T10:00:27.703Z,15.88
2019-04-29T10:02:58.650Z,17.15
2019-04-29T10:05:29.573Z,15.65
2019-04-29T10:07:58.827Z,14.40
2019-04-29T10:10:28.268Z,14.65
2019-04-29T10:13:03.666Z,14.85
2019-04-29T10:15:40.701Z,13.72
2019-04-29T10:18:11.555Z,14.43
2019-04-29T10:20:51.515Z,14.45
2019-04-29T10:23:22.604Z,13.83
2019-04-29T10:25:55.871Z,13.55
2019-04-29T10:28:25.089Z,14.35
2019-04-29T10:30:54.316Z,13.28
2019-04-29T10:33:24.268Z,13.78
2019-04-29T10:35:53.590Z,13.10
2019-04-29T10:38:22.901Z,11.90
2019-04-29T10:40:56.551Z,13.03
2019-04-29T10:43:37.188Z,13.58
2019-04-29T10:46:08.161Z,13.48
2019-04-29T10:48:40.781Z,13.22
2019-04-29T10:51:11.867Z,12.82
2019-04-29T10:53:41.141Z,12.10
2019-04-29T10:56:10.527Z,13.08
2019-04-29T10:58:40.029Z,14.13
2019-04-29T11:01:39.618Z,13.88
2019-04-29T11:04:09.145Z,12.33
2019-04-29T11:06:38.421Z,13.72
2019-04-29T11:09:29.629Z,14.30
2019-04-29T11:12:23.064Z,13.85
2019-04-29T11:21:20.744Z,14.95
2019-04-29T11:26:29.020Z,13.35
2019-04-29T11:28:59.648Z,13.70
2019-04-29T11:31:29.019Z,12.37
2019-04-29T11:34:05.636Z,12.50
2019-04-29T11:36:38.963Z,13.00
2019-04-29T11:39:09.002Z,12.30
2019-04-29T11:41:39.570Z,11.15
2019-04-29T11:44:08.872Z,12.05
2019-04-29T11:46:38.773Z,10.18
2019-04-29T11:49:08.759Z,11.95
2019-04-29T11:52:05.047Z,11.88
2019-04-29T11:54:17.945Z,11.88
2019-04-29T12:08:15.989Z,11.05
2019-04-29T12:13:58.835Z,12.88
2019-04-29T12:28:57.344Z,9.98
2019-04-29T12:31:49.444Z,9.98
2019-04-29T12:34:27.646Z,9.50
2019-04-29T12:36:58.428Z,8.60
2019-04-29T12:39:45.053Z,8.45
2019-04-29T12:54:30.102Z,6.55
2019-04-29T12:57:23.369Z,7.22
2019-04-29T13:03:21.886Z,6.62
2019-04-29T13:06:23.083Z,7.15
2019-04-29T13:08:51.102Z,6.37
2019-04-29T13:39:08.275Z,7.90
2019-04-29T13:57:38.173Z,7.47
2019-04-29T14:00:11.696Z,6.22
2019-04-29T14:02:58.432Z,7.40
2019-04-29T14:05:19.634Z,7.30
2019-04-29T14:07:52.603Z,6.45
2019-04-29T14:10:23.022Z,6.50
2019-04-29T14:13:05.084Z,5.55
2019-04-29T14:15:23.415Z,5.92
2019-04-29T14:17:52.791Z,6.72
2019-04-29T14:20:22.150Z,5.70
2019-04-29T14:22:51.527Z,6.10
2019-04-29T14:25:20.772Z,5.65
2019-04-29T14:27:50.119Z,4.95
2019-04-29T14:30:21.063Z,5.22
2019-04-29T14:32:52.371Z,4.40
2019-04-29T14:35:25.820Z,4.53
2019-04-29T14:37:59.930Z,4.80
2019-04-29T14:40:26.127Z,4.85
2019-04-29T14:43:07.570Z,4.37
2019-04-29T14:45:45.006Z,4.80
2019-04-29T14:48:16.000Z,4.67
2019-04-29T14:50:49.602Z,4.78
2019-04-29T14:53:27.720Z,4.28
2019-04-29T14:55:57.264Z,5.58
2019-04-29T14:58:27.284Z,4.60
2019-04-29T15:00:58.724Z,4.75
2019-04-29T15:03:30.224Z,4.53
2019-04-29T15:05:59.628Z,4.67
2019-04-29T15:08:32.022Z,4.75
2019-04-29T15:11:04.113Z,5.12
2019-04-29T15:13:33.046Z,5.10
2019-04-29T15:16:09.677Z,4.50
2019-04-29T15:18:53.559Z,4.12
2019-04-29T15:21:32.028Z,4.92
2019-04-29T15:23:56.642Z,4.67
2019-04-29T15:26:26.224Z,4.65
2019-04-29T15:28:56.229Z,4.20
2019-04-29T15:31:26.059Z,4.53
2019-04-29T15:33:55.282Z,3.58
2019-04-29T15:36:26.282Z,4.75
2019-04-29T15:39:09.024Z,4.30
2019-04-29T15:41:30.984Z,4.60
2019-04-29T15:44:07.212Z,4.15
2019-04-29T15:46:45.153Z,4.10
2019-04-29T15:49:00.651Z,4.28
2019-04-29T15:51:29.880Z,3.75
2019-04-29T15:53:59.179Z,4.22
2019-04-29T15:56:33.383Z,3.85
2019-04-29T15:59:07.723Z,4.03
2019-04-29T16:01:30.959Z,4.22
2019-04-29T16:04:02.084Z,4.35
2019-04-29T16:06:40.182Z,4.00
2019-04-29T16:09:09.365Z,3.77
2019-04-29T16:11:40.366Z,3.77
2019-04-29T16:14:14.504Z,3.80
2019-04-29T16:16:43.898Z,4.33
2019-04-29T16:19:13.189Z,3.98
2019-04-29T16:21:42.671Z,3.50
2019-04-29T16:24:25.743Z,3.80
2019-04-29T16:26:43.681Z,4.08
2019-04-29T16:29:15.418Z,4.10
2019-04-29T16:31:44.021Z,4.08
2019-04-29T16:34:13.368Z,4.28
2019-04-29T16:36:43.794Z,3.85
2019-04-29T16:39:13.497Z,3.70
2019-04-29T16:41:58.020Z,3.98
2019-04-29T16:44:35.614Z,4.20
2019-04-29T16:46:55.607Z,3.90
2019-04-29T16:49:24.916Z,3.65
2019-04-29T16:51:55.817Z,3.62
2019-04-29T16:54:28.426Z,3.75
2019-04-29T16:56:56.233Z,3.62
2019-04-29T16:59:25.459Z,4.10
2019-04-29T17:01:54.795Z,3.70
2019-04-29T17:04:24.128Z,3.52
2019-04-29T17:07:11.841Z,3.50
2019-04-29T17:09:41.759Z,3.40
2019-04-29T17:12:11.563Z,3.50
2019-04-29T17:15:02.206Z,3.50
2019-04-29T17:17:13.408Z,3.90
2019-04-29T17:19:42.594Z,3.77
2019-04-29T17:22:25.476Z,3.33
2019-04-29T17:24:43.524Z,3.35
2019-04-29T17:27:23.545Z,3.85
2019-04-29T17:30:07.988Z,3.98
2019-04-29T17:32:54.348Z,3.25
2019-04-29T17:37:55.332Z,4.05
2019-04-29T17:40:25.240Z,5.17
2019-04-29T17:42:56.203Z,5.53
2019-04-29T17:45:30.577Z,4.37
2019-04-29T17:48:18.370Z,4.47
2019-04-29T17:50:53.370Z,4.97
2019-04-29T17:53:35.336Z,4.97
2019-04-29T17:56:14.987Z,5.55
2019-04-29T17:58:53.877Z,5.03
2019-04-29T18:01:43.393Z,4.80
2019-04-29T18:04:30.335Z,4.83
2019-04-29T18:07:12.219Z,5.12
2019-04-29T18:09:49.069Z,5.35
2019-04-29T18:12:19.938Z,5.35
2019-04-29T18:14:49.194Z,5.42
2019-04-29T18:17:27.049Z,4.97
2019-04-29T18:19:55.100Z,5.10
2019-04-29T18:22:35.313Z,5.30
2019-04-29T18:25:15.008Z,4.67
2019-04-29T18:27:49.019Z,5.43
2019-04-29T18:30:19.525Z,5.58
2019-04-29T18:32:48.460Z,5.50
2019-04-29T18:35:18.105Z,5.42
2019-04-29T18:37:47.772Z,5.43
2019-04-29T18:40:17.295Z,5.70
2019-04-29T18:42:48.553Z,5.80
2019-04-29T18:45:17.592Z,6.40
2019-04-29T18:47:50.213Z,6.80
2019-04-29T18:50:22.152Z,6.33
2019-04-29T18:52:52.191Z,6.40
2019-04-29T18:55:21.559Z,6.47
2019-04-29T18:57:51.467Z,6.90
2019-04-29T19:00:22.182Z,6.85
2019-04-29T19:02:57.033Z,7.35
2019-04-29T19:05:32.288Z,7.33
2019-04-29T19:08:11.470Z,6.80
2019-04-29T19:10:34.346Z,6.92
2019-04-29T19:13:07.114Z,7.55
2019-04-29T19:15:35.445Z,6.95
2019-04-29T19:18:07.606Z,7.27
2019-04-29T19:20:36.011Z,7.60
2019-04-29T19:25:35.419Z,8.23
2019-04-29T19:28:12.726Z,8.30
2019-04-29T19:30:37.491Z,7.47
2019-04-29T19:33:09.048Z,7.72
2019-04-29T19:35:38.833Z,8.48
2019-04-29T19:38:12.443Z,9.10
2019-04-29T19:40:42.441Z,7.60
2019-04-29T19:43:17.397Z,8.20
2019-04-29T19:45:44.655Z,8.00
2019-04-29T19:48:13.039Z,7.78
2019-04-29T19:50:42.948Z,8.38
2019-04-29T19:53:12.852Z,8.38
2019-04-29T19:55:43.269Z,7.83
2019-04-29T19:58:14.552Z,7.95
2019-04-29T20:00:47.351Z,7.80
2019-04-29T20:03:24.399Z,7.95
2019-04-29T20:05:53.600Z,7.58
2019-04-29T20:08:46.256Z,7.55
2019-04-29T20:11:11.048Z,8.28
2019-04-29T20:13:31.443Z,8.63
2019-04-29T20:16:13.130Z,8.40
2019-04-29T20:19:01.903Z,7.50
2019-04-29T20:21:37.439Z,8.95
2019-04-29T20:24:09.397Z,7.87
2019-04-29T20:26:38.126Z,8.35
2019-04-29T20:29:07.738Z,7.70
2019-04-29T20:31:38.993Z,7.78
2019-04-29T20:34:08.235Z,8.68
2019-04-29T20:36:41.113Z,9.03
2019-04-29T20:39:15.114Z,9.00
2019-04-29T20:41:44.428Z,8.10
2019-04-29T20:44:12.157Z,8.30
2019-04-29T20:46:51.723Z,8.30
2019-04-29T20:49:12.686Z,8.18
2019-04-29T20:51:49.753Z,8.35
2019-04-29T20:54:20.343Z,8.73
2019-04-29T20:57:01.336Z,9.10
2019-04-29T20:59:20.773Z,9.13
2019-04-29T21:01:56.869Z,8.58
2019-04-29T21:04:32.036Z,9.43
2019-04-29T21:07:00.486Z,8.65
2019-04-29T21:09:30.151Z,9.50
2019-04-29T21:12:03.017Z,10.93
2019-04-29T21:14:38.155Z,9.25
2019-04-29T21:17:10.813Z,9.65
2019-04-29T21:19:38.802Z,9.98
2019-04-29T21:22:08.356Z,9.30
2019-04-29T21:24:39.096Z,10.03
2019-04-29T21:27:08.442Z,9.20
2019-04-29T21:29:37.753Z,8.68
2019-04-29T21:32:07.554Z,9.88
2019-04-29T21:34:45.266Z,9.65
2019-04-29T21:37:21.927Z,8.70
2019-04-29T21:39:55.256Z,9.18
2019-04-29T21:42:29.677Z,9.00
2019-04-29T21:44:58.580Z,8.75
2019-04-29T21:47:41.703Z,8.75
2019-04-29T21:50:00.162Z,8.35
2019-04-29T21:52:29.448Z,8.10
2019-04-29T21:54:58.697Z,8.73
2019-04-29T21:57:28.148Z,8.53
2019-04-29T21:59:57.356Z,7.97
2019-04-29T22:02:27.637Z,8.33
2019-04-29T22:04:57.333Z,7.28
2019-04-29T22:07:26.913Z,7.50
2019-04-29T22:09:56.146Z,7.12
2019-04-29T22:12:25.820Z,7.75
2019-04-29T22:14:56.450Z,7.40
2019-04-29T22:17:32.722Z,7.05
2019-04-29T22:20:03.820Z,7.08
2019-04-29T22:22:30.688Z,7.55
2019-04-29T22:25:05.786Z,7.28
2019-04-29T22:27:34.170Z,6.53
2019-04-29T22:30:01.634Z,7.22
2019-04-29T22:32:31.155Z,6.62
2019-04-29T22:35:01.627Z,6.53
2019-04-29T22:40:03.112Z,5.45
2019-04-29T22:42:35.498Z,6.33
2019-04-29T22:45:06.522Z,5.90
2019-04-29T22:47:35.993Z,6.42
2019-04-29T22:50:05.736Z,5.28
2019-04-29T22:52:36.709Z,5.62
2019-04-29T22:55:07.399Z,6.47
2019-04-29T22:57:36.746Z,5.85
2019-04-29T23:00:08.275Z,6.33
2019-04-29T23:02:37.663Z,5.60
2019-04-29T23:05:07.440Z,6.45
2019-04-29T23:07:37.803Z,6.33
2019-04-29T23:10:08.349Z,5.65
2019-04-29T23:12:38.186Z,5.60
2019-04-29T23:15:08.121Z,5.25
2019-04-29T23:17:38.017Z,5.83
2019-04-29T23:20:09.769Z,6.22
2019-04-29T23:22:46.747Z,5.50
2019-04-29T23:25:21.830Z,5.80
2019-04-29T23:27:52.673Z,5.85
2019-04-29T23:30:22.102Z,6.65
2019-04-29T23:32:51.570Z,6.85
2019-04-29T23:35:20.950Z,6.37
2019-04-29T23:37:50.736Z,6.58
2019-04-29T23:40:20.219Z,6.58
2019-04-29T23:42:49.801Z,6.37
2019-04-29T23:45:21.157Z,6.90
2019-04-29T23:47:50.524Z,6.20
2019-04-29T23:50:20.246Z,7.30
2019-04-29T23:52:51.812Z,7.10
2019-04-29T23:55:27.408Z,6.80
2019-04-29T23:57:55.584Z,7.50
